createdAt,value
2019-03-25T00:01:13.667Z,2.43
2019-03-25T00:03:42.921Z,2.97
2019-03-25T00:06:12.233Z,3.60
2019-03-25T00:08:42.475Z,3.83
2019-03-25T00:11:12.085Z,3.87
2019-03-25T00:13:41.396Z,3.50
2019-03-25T00:16:10.707Z,3.63
2019-03-25T00:18:40.476Z,4.10
2019-03-25T00:21:10.287Z,3.87
2019-03-25T00:23:39.516Z,4.03
2019-03-25T00:26:09.003Z,3.47
2019-03-25T00:28:38.248Z,3.70
2019-03-25T00:31:07.793Z,3.63
2019-03-25T00:33:37.073Z,3.77
2019-03-25T00:36:06.334Z,4.17
2019-03-25T00:38:35.542Z,3.20
2019-03-25T00:41:05.387Z,3.27
2019-03-25T00:43:35.149Z,4.00
2019-03-25T00:46:04.799Z,4.23
2019-03-25T00:48:34.098Z,4.10
2019-03-25T00:51:03.646Z,3.50
2019-03-25T00:53:32.850Z,3.97
2019-03-25T00:56:02.301Z,3.30
2019-03-25T00:58:31.512Z,3.23
2019-03-25T01:01:01.826Z,3.00
2019-03-25T01:03:31.151Z,2.87
2019-03-25T01:06:00.680Z,3.07
2019-03-25T01:08:30.177Z,3.47
2019-03-25T01:10:59.446Z,3.60
2019-03-25T01:13:28.739Z,3.63
2019-03-25T01:15:58.000Z,3.50
2019-03-25T01:18:27.800Z,2.87
2019-03-25T01:20:57.151Z,3.47
2019-03-25T01:23:26.415Z,2.90
2019-03-25T01:25:56.004Z,2.77
2019-03-25T01:28:25.211Z,3.23
2019-03-25T01:30:54.496Z,2.63
2019-03-25T01:33:23.820Z,3.20
2019-03-25T01:35:53.342Z,3.53
2019-03-25T01:38:22.574Z,3.20
2019-03-25T01:40:51.809Z,2.77
2019-03-25T01:43:21.063Z,3.03
2019-03-25T01:45:50.312Z,3.47
2019-03-25T01:48:19.918Z,3.43
2019-03-25T01:50:49.237Z,2.77
2019-03-25T01:53:19.558Z,3.13
2019-03-25T01:55:49.567Z,3.27
2019-03-25T01:58:18.766Z,2.93
2019-03-25T02:00:48.043Z,3.27
2019-03-25T02:03:18.598Z,3.60
2019-03-25T02:05:48.712Z,2.57
2019-03-25T02:08:18.323Z,3.23
2019-03-25T02:10:47.541Z,3.67
2019-03-25T02:13:17.135Z,3.30
2019-03-25T02:15:46.838Z,2.77
2019-03-25T02:18:16.063Z,2.57
2019-03-25T02:20:45.484Z,3.17
2019-03-25T02:23:14.998Z,2.53
2019-03-25T02:25:44.775Z,3.03
2019-03-25T02:28:13.988Z,3.57
2019-03-25T02:30:43.285Z,4.00
2019-03-25T02:33:12.760Z,3.33
2019-03-25T02:35:42.062Z,3.10
2019-03-25T02:38:11.984Z,3.40
2019-03-25T02:40:41.195Z,3.00
2019-03-25T02:43:11.919Z,3.10
2019-03-25T02:45:41.417Z,2.17
2019-03-25T02:48:10.644Z,2.73
2019-03-25T02:50:39.893Z,2.73
2019-03-25T02:53:10.226Z,2.77
2019-03-25T02:55:42.075Z,3.00
2019-03-25T02:58:10.644Z,3.00
2019-03-25T03:00:40.661Z,2.70
2019-03-25T03:03:09.968Z,2.83
2019-03-25T03:05:39.286Z,2.40
2019-03-25T03:08:08.596Z,3.30
2019-03-25T03:10:38.181Z,2.70
2019-03-25T03:13:07.494Z,2.70
2019-03-25T03:15:37.059Z,2.87
2019-03-25T03:18:06.380Z,3.00
2019-03-25T03:20:35.950Z,2.73
2019-03-25T03:23:05.205Z,2.93
2019-03-25T03:25:34.534Z,2.83
2019-03-25T03:28:04.252Z,2.20
2019-03-25T03:30:34.177Z,2.90
2019-03-25T03:33:03.687Z,2.50
2019-03-25T03:35:33.573Z,2.97
2019-03-25T03:38:03.132Z,2.17
2019-03-25T03:40:32.404Z,2.47
2019-03-25T03:43:02.073Z,3.10
2019-03-25T03:45:31.640Z,2.60
2019-03-25T03:48:00.891Z,2.60
2019-03-25T03:50:30.474Z,3.70
2019-03-25T03:53:00.029Z,2.47
2019-03-25T03:55:31.603Z,2.83
2019-03-25T03:58:00.913Z,2.30
2019-03-25T04:00:31.765Z,2.43
2019-03-25T04:03:01.299Z,2.63
2019-03-25T04:05:30.671Z,3.00
2019-03-25T04:08:00.604Z,2.60
2019-03-25T04:10:30.255Z,2.10
2019-03-25T04:12:59.516Z,2.80
2019-03-25T04:15:32.586Z,2.30
2019-03-25T04:18:01.954Z,3.07
2019-03-25T04:20:31.404Z,2.13
2019-03-25T04:23:00.708Z,2.20
2019-03-25T04:25:30.468Z,1.90
2019-03-25T04:27:59.704Z,2.63
2019-03-25T04:30:29.390Z,2.27
2019-03-25T04:32:58.697Z,2.23
2019-03-25T04:35:27.901Z,2.60
2019-03-25T04:37:57.515Z,2.50
2019-03-25T04:40:26.807Z,2.80
2019-03-25T04:42:56.121Z,2.97
2019-03-25T04:45:25.415Z,2.63
2019-03-25T04:47:54.616Z,2.10
2019-03-25T04:50:23.824Z,2.60
2019-03-25T04:52:53.504Z,2.57
2019-03-25T04:55:22.716Z,3.20
2019-03-25T04:57:51.948Z,2.93
2019-03-25T05:00:38.201Z,2.70
2019-03-25T05:03:08.010Z,2.50
2019-03-25T05:05:37.243Z,2.23
2019-03-25T05:08:06.547Z,2.70
2019-03-25T05:10:35.757Z,2.07
2019-03-25T05:13:07.168Z,2.57
2019-03-25T05:15:36.372Z,2.87
2019-03-25T05:18:05.737Z,1.97
2019-03-25T05:20:34.954Z,2.30
2019-03-25T05:23:04.220Z,2.00
2019-03-25T05:25:33.499Z,2.27
2019-03-25T05:28:02.709Z,2.70
2019-03-25T05:30:31.907Z,2.07
2019-03-25T05:33:01.160Z,3.07
2019-03-25T05:35:30.359Z,2.73
2019-03-25T05:38:02.760Z,2.40
2019-03-25T05:40:32.138Z,2.87
2019-03-25T05:43:01.334Z,2.53
2019-03-25T05:45:30.856Z,2.37
2019-03-25T05:48:00.111Z,2.27
2019-03-25T05:50:29.363Z,2.40
2019-03-25T05:52:58.915Z,2.67
2019-03-25T05:55:28.178Z,2.97
2019-03-25T05:57:57.635Z,3.20
2019-03-25T06:00:30.295Z,2.67
2019-03-25T06:02:59.545Z,3.30
2019-03-25T06:05:28.846Z,2.87
2019-03-25T06:07:58.516Z,3.40
2019-03-25T06:10:27.916Z,3.13
2019-03-25T06:12:57.760Z,2.77
2019-03-25T06:15:27.363Z,4.00
2019-03-25T06:17:56.835Z,3.20
2019-03-25T06:20:26.366Z,3.50
2019-03-25T06:22:55.720Z,3.93
2019-03-25T06:25:25.090Z,3.60
2019-03-25T06:27:54.709Z,3.63
2019-03-25T06:30:25.081Z,4.00
2019-03-25T06:32:54.903Z,3.60
2019-03-25T06:35:24.288Z,4.07
2019-03-25T06:37:53.508Z,4.20
2019-03-25T06:40:23.822Z,4.30
2019-03-25T06:42:53.088Z,3.50
2019-03-25T06:45:22.455Z,3.40
2019-03-25T06:47:52.452Z,3.63
2019-03-25T06:50:21.705Z,3.33
2019-03-25T06:52:51.029Z,3.50
2019-03-25T06:55:20.585Z,3.00
2019-03-25T06:57:49.901Z,2.53
2019-03-25T07:00:19.325Z,2.57
2019-03-25T07:02:48.769Z,2.30
2019-03-25T07:05:19.678Z,2.83
2019-03-25T07:07:48.915Z,3.20
2019-03-25T07:10:33.902Z,3.23
2019-03-25T07:13:04.475Z,3.33
2019-03-25T07:15:34.149Z,3.30
2019-03-25T07:18:04.823Z,2.90
2019-03-25T07:20:34.127Z,2.93
2019-03-25T07:23:03.304Z,3.07
2019-03-25T07:25:32.505Z,2.90
2019-03-25T07:28:01.703Z,2.60
2019-03-25T07:30:31.563Z,2.73
2019-03-25T07:33:00.879Z,2.63
2019-03-25T07:35:30.055Z,2.80
2019-03-25T07:37:59.505Z,3.80
2019-03-25T07:40:29.231Z,3.30
2019-03-25T07:42:58.450Z,3.70
2019-03-25T07:45:27.640Z,3.43
2019-03-25T07:47:56.930Z,4.43
2019-03-25T07:50:26.403Z,5.20
2019-03-25T07:52:55.613Z,5.47
2019-03-25T07:55:25.712Z,5.73
2019-03-25T07:57:58.098Z,5.80
2019-03-25T08:00:27.485Z,6.37
2019-03-25T08:02:56.821Z,6.80
2019-03-25T08:05:26.091Z,5.80
2019-03-25T08:07:55.527Z,5.47
2019-03-25T08:10:35.368Z,5.43
2019-03-25T08:13:05.243Z,4.63
2019-03-25T08:15:34.691Z,4.90
2019-03-25T08:18:05.634Z,4.30
2019-03-25T08:20:34.859Z,3.87
2019-03-25T08:23:04.251Z,4.60
2019-03-25T08:25:33.461Z,3.70
2019-03-25T08:28:02.661Z,3.30
2019-03-25T08:30:32.465Z,3.87
2019-03-25T08:33:01.910Z,3.23
2019-03-25T08:35:31.455Z,2.87
2019-03-25T08:38:00.820Z,2.77
2019-03-25T08:40:30.301Z,2.00
2019-03-25T08:42:59.817Z,2.70
2019-03-25T08:45:29.091Z,2.50
2019-03-25T08:47:58.769Z,2.40
2019-03-25T08:50:28.259Z,2.50
2019-03-25T08:52:57.977Z,2.23
2019-03-25T08:55:27.466Z,2.20
2019-03-25T08:57:56.932Z,2.40
2019-03-25T09:00:26.274Z,1.87
2019-03-25T09:02:55.802Z,1.70
2019-03-25T09:05:25.312Z,1.77
2019-03-25T09:07:54.587Z,1.80
2019-03-25T09:10:24.620Z,1.80
2019-03-25T09:12:53.932Z,1.90
2019-03-25T09:15:23.231Z,1.40
2019-03-25T09:17:52.669Z,1.80
2019-03-25T09:20:21.973Z,1.70
2019-03-25T09:22:51.439Z,1.60
2019-03-25T09:25:21.380Z,1.80
2019-03-25T09:27:50.694Z,1.63
2019-03-25T09:30:55.652Z,1.50
2019-03-25T09:33:24.950Z,1.90
2019-03-25T09:35:54.434Z,2.00
2019-03-25T09:38:23.789Z,2.27
2019-03-25T09:40:53.117Z,1.67
2019-03-25T09:43:22.558Z,1.30
2019-03-25T09:45:52.212Z,1.80
2019-03-25T09:48:21.921Z,1.73
2019-03-25T09:50:51.461Z,1.67
2019-03-25T09:53:20.954Z,1.53
2019-03-25T09:55:50.433Z,1.60
2019-03-25T09:58:19.755Z,1.33
2019-03-25T10:00:51.946Z,1.50
2019-03-25T10:03:19.943Z,1.80
2019-03-25T10:05:49.319Z,2.40
2019-03-25T10:08:19.193Z,1.10
2019-03-25T10:10:48.437Z,1.50
2019-03-25T10:13:18.465Z,1.30
2019-03-25T10:15:47.804Z,1.20
2019-03-25T10:18:17.340Z,1.40
2019-03-25T10:20:46.751Z,1.57
2019-03-25T10:23:16.379Z,1.50
2019-03-25T10:25:45.611Z,1.40
2019-03-25T10:28:15.173Z,1.20
2019-03-25T10:30:44.870Z,1.23
2019-03-25T10:33:14.294Z,1.70
2019-03-25T10:35:43.590Z,1.57
2019-03-25T10:38:19.641Z,1.40
2019-03-25T10:40:44.315Z,1.40
2019-03-25T10:43:13.597Z,1.30
2019-03-25T10:45:42.859Z,1.10
2019-03-25T10:48:12.419Z,1.50
2019-03-25T10:50:42.069Z,1.23
2019-03-25T10:53:11.574Z,1.33
2019-03-25T10:55:40.909Z,1.07
2019-03-25T10:58:10.308Z,0.90
2019-03-25T11:00:41.251Z,1.40
2019-03-25T11:03:10.701Z,1.40
2019-03-25T11:05:40.386Z,1.10
2019-03-25T11:08:09.625Z,1.37
2019-03-25T11:10:38.855Z,1.00
2019-03-25T11:13:08.103Z,1.30
2019-03-25T11:15:37.690Z,1.50
2019-03-25T11:18:07.091Z,2.17
2019-03-25T11:20:36.498Z,1.33
2019-03-25T11:23:05.733Z,1.53
2019-03-25T11:25:35.076Z,1.50
2019-03-25T11:28:04.459Z,1.30
2019-03-25T11:30:58.094Z,1.63
2019-03-25T11:33:28.059Z,1.40
2019-03-25T11:35:57.701Z,1.23
2019-03-25T11:38:27.271Z,1.60
2019-03-25T11:40:56.513Z,0.97
2019-03-25T11:43:25.902Z,1.30
2019-03-25T11:45:55.308Z,1.03
2019-03-25T11:48:24.732Z,0.70
2019-03-25T11:50:54.211Z,1.23
2019-03-25T11:53:23.466Z,0.80
2019-03-25T11:55:52.820Z,1.20
2019-03-25T11:58:22.185Z,1.07
2019-03-25T12:00:51.449Z,1.10
2019-03-25T12:03:21.040Z,0.70
2019-03-25T12:05:50.894Z,0.97
2019-03-25T12:08:20.195Z,0.93
2019-03-25T12:10:49.659Z,1.07
2019-03-25T12:13:19.491Z,0.97
2019-03-25T12:15:48.847Z,1.53
2019-03-25T12:18:18.091Z,0.77
2019-03-25T12:20:47.414Z,1.50
2019-03-25T12:23:25.970Z,1.57
2019-03-25T12:25:47.907Z,1.23
2019-03-25T12:28:17.635Z,1.20
2019-03-25T12:30:47.303Z,1.00
2019-03-25T12:33:16.510Z,1.50
2019-03-25T12:35:45.816Z,0.90
2019-03-25T12:38:15.423Z,0.70
2019-03-25T12:40:44.695Z,0.87
2019-03-25T12:43:14.241Z,1.33
2019-03-25T12:45:43.450Z,0.77
2019-03-25T12:48:13.885Z,0.90
2019-03-25T12:50:43.126Z,0.77
2019-03-25T12:53:12.754Z,0.80
2019-03-25T12:55:42.134Z,0.70
2019-03-25T12:58:11.730Z,0.60
2019-03-25T13:00:45.258Z,1.00
2019-03-25T13:03:14.547Z,0.70
2019-03-25T13:05:44.025Z,0.80
2019-03-25T13:08:13.503Z,0.80
2019-03-25T13:10:42.785Z,0.57
2019-03-25T13:13:12.002Z,0.97
2019-03-25T13:15:41.596Z,0.70
2019-03-25T13:18:10.906Z,1.20
2019-03-25T13:20:40.531Z,0.60
2019-03-25T13:23:10.395Z,1.03
2019-03-25T13:25:40.049Z,0.90
2019-03-25T13:28:09.371Z,0.97
2019-03-25T13:30:38.963Z,0.60
2019-03-25T13:33:08.182Z,0.90
2019-03-25T13:35:37.432Z,0.80
2019-03-25T13:38:06.672Z,0.90
2019-03-25T13:40:35.904Z,0.80
2019-03-25T13:43:05.477Z,1.00
2019-03-25T13:45:35.007Z,0.73
2019-03-25T13:48:04.313Z,0.67
2019-03-25T13:50:33.543Z,0.87
2019-03-25T13:53:03.072Z,0.50
2019-03-25T13:55:32.595Z,0.60
2019-03-25T13:58:02.914Z,0.60
2019-03-25T14:00:42.461Z,0.30
2019-03-25T14:03:12.438Z,0.40
2019-03-25T14:05:41.830Z,0.40
2019-03-25T14:08:11.121Z,0.40
2019-03-25T14:10:40.355Z,0.60
2019-03-25T14:13:09.600Z,0.30
2019-03-25T14:15:39.187Z,0.47
2019-03-25T14:18:08.531Z,0.43
2019-03-25T14:20:37.798Z,0.33
2019-03-25T14:23:07.067Z,0.50
2019-03-25T14:25:36.347Z,0.50
2019-03-25T14:28:05.820Z,0.70
2019-03-25T14:30:35.161Z,0.50
2019-03-25T14:33:04.537Z,0.80
2019-03-25T14:35:33.849Z,0.80
2019-03-25T14:38:03.120Z,1.10
2019-03-25T14:40:32.742Z,0.80
2019-03-25T14:43:02.315Z,0.97
2019-03-25T14:45:31.565Z,0.80
2019-03-25T14:48:01.019Z,0.77
2019-03-25T14:50:30.266Z,0.60
2019-03-25T14:52:59.845Z,0.40
2019-03-25T14:55:29.198Z,0.57
2019-03-25T14:57:58.543Z,0.70
2019-03-25T15:00:27.779Z,0.90
2019-03-25T15:02:57.014Z,1.07
2019-03-25T15:05:26.846Z,0.90
2019-03-25T15:07:56.469Z,0.93
2019-03-25T15:10:25.792Z,1.00
2019-03-25T15:12:55.268Z,1.10
2019-03-25T15:15:33.422Z,0.90
2019-03-25T15:18:03.055Z,0.77
2019-03-25T15:20:32.579Z,1.13
2019-03-25T15:23:02.553Z,1.50
2019-03-25T15:25:32.320Z,0.80
2019-03-25T15:28:01.760Z,1.10
2019-03-25T15:30:35.810Z,0.97
2019-03-25T15:33:02.375Z,0.80
2019-03-25T15:35:31.671Z,1.17
2019-03-25T15:38:01.396Z,0.80
2019-03-25T15:40:30.809Z,1.00
2019-03-25T15:43:00.302Z,0.87
2019-03-25T15:45:29.509Z,0.80
2019-03-25T15:47:58.722Z,0.80
2019-03-25T15:50:27.941Z,1.00
2019-03-25T15:52:57.412Z,1.17
2019-03-25T15:55:26.675Z,1.00
2019-03-25T15:57:56.511Z,0.70
2019-03-25T16:00:26.520Z,1.03
2019-03-25T16:02:56.011Z,0.67
2019-03-25T16:05:25.328Z,0.70
2019-03-25T16:07:54.611Z,0.90
2019-03-25T16:10:24.138Z,1.03
2019-03-25T16:12:53.497Z,0.70
2019-03-25T16:15:40.079Z,1.00
2019-03-25T16:18:10.355Z,1.10
2019-03-25T16:20:39.689Z,0.60
2019-03-25T16:23:09.656Z,0.83
2019-03-25T16:25:38.929Z,0.70
2019-03-25T16:28:08.163Z,1.43
2019-03-25T16:30:37.693Z,1.20
2019-03-25T16:33:06.964Z,0.77
2019-03-25T16:35:36.247Z,0.83
2019-03-25T16:38:05.485Z,1.30
2019-03-25T16:40:34.879Z,0.87
2019-03-25T16:43:04.424Z,0.90
2019-03-25T16:45:33.678Z,0.90
2019-03-25T16:48:03.573Z,1.00
2019-03-25T16:50:32.984Z,1.50
2019-03-25T16:53:02.399Z,1.03
2019-03-25T16:55:32.043Z,0.63
2019-03-25T16:58:01.640Z,1.03
2019-03-25T17:00:30.929Z,1.00
2019-03-25T17:03:00.256Z,1.10
2019-03-25T17:05:29.577Z,1.03
2019-03-25T17:07:58.814Z,1.20
2019-03-25T17:10:29.062Z,0.93
2019-03-25T17:12:58.322Z,1.30
2019-03-25T17:15:27.703Z,0.97
2019-03-25T17:17:57.507Z,1.60
2019-03-25T17:20:26.733Z,1.60
2019-03-25T17:22:56.344Z,1.60
2019-03-25T17:25:26.006Z,1.20
2019-03-25T17:27:55.273Z,1.53
2019-03-25T17:30:25.170Z,1.40
2019-03-25T17:32:54.416Z,1.20
2019-03-25T17:35:24.092Z,1.33
2019-03-25T17:37:53.332Z,1.50
2019-03-25T17:40:22.590Z,1.47
2019-03-25T17:42:51.986Z,1.10
2019-03-25T17:45:21.683Z,1.13
2019-03-25T17:47:51.026Z,1.33
2019-03-25T17:50:20.391Z,1.43
2019-03-25T17:52:50.001Z,1.50
2019-03-25T17:55:19.243Z,1.30
2019-03-25T17:57:48.543Z,1.37
2019-03-25T18:00:34.610Z,1.43
2019-03-25T18:03:11.082Z,1.67
2019-03-25T18:05:34.975Z,1.20
2019-03-25T18:08:04.691Z,1.20
2019-03-25T18:10:33.963Z,3.30
2019-03-25T18:13:03.305Z,1.47
2019-03-25T18:15:32.780Z,1.37
2019-03-25T18:18:02.375Z,1.97
2019-03-25T18:20:31.634Z,1.80
2019-03-25T18:23:00.940Z,1.40
2019-03-25T18:25:30.556Z,1.13
2019-03-25T18:27:59.772Z,1.10
2019-03-25T18:30:32.701Z,1.23
2019-03-25T18:33:02.073Z,1.00
2019-03-25T18:35:31.406Z,1.20
2019-03-25T18:38:00.602Z,1.40
2019-03-25T18:40:29.887Z,1.23
2019-03-25T18:42:59.118Z,1.00
2019-03-25T18:45:28.612Z,1.30
2019-03-25T18:47:57.826Z,0.90
2019-03-25T18:50:27.094Z,0.97
2019-03-25T18:52:57.024Z,1.30
2019-03-25T18:55:26.327Z,0.87
2019-03-25T18:57:55.769Z,1.40
2019-03-25T19:00:32.032Z,1.00
2019-03-25T19:03:02.858Z,1.03
2019-03-25T19:05:32.378Z,1.10
2019-03-25T19:08:03.813Z,1.40
2019-03-25T19:10:33.598Z,1.03
2019-03-25T19:13:02.799Z,1.27
2019-03-25T19:15:32.184Z,1.37
2019-03-25T19:18:01.407Z,4.93
2019-03-25T19:20:30.699Z,1.37
2019-03-25T19:22:59.905Z,1.23
2019-03-25T19:25:29.193Z,0.93
2019-03-25T19:27:58.525Z,1.07
2019-03-25T19:30:27.717Z,0.90
2019-03-25T19:32:57.315Z,1.50
2019-03-25T19:35:26.836Z,0.97
2019-03-25T19:37:56.627Z,0.90
2019-03-25T19:40:25.875Z,1.40
2019-03-25T19:42:55.139Z,0.93
2019-03-25T19:45:24.465Z,1.47
2019-03-25T19:47:54.499Z,0.97
2019-03-25T19:50:24.507Z,0.93
2019-03-25T19:52:54.534Z,1.47
2019-03-25T19:55:25.924Z,1.13
2019-03-25T19:57:55.163Z,0.80
2019-03-25T20:00:36.427Z,1.13
2019-03-25T20:03:06.662Z,1.17
2019-03-25T20:05:36.093Z,1.30
2019-03-25T20:08:05.629Z,1.13
2019-03-25T20:10:35.593Z,1.50
2019-03-25T20:13:05.307Z,1.30
2019-03-25T20:15:45.478Z,1.43
2019-03-25T20:18:05.700Z,1.20
2019-03-25T20:20:35.267Z,0.90
2019-03-25T20:23:04.796Z,1.63
2019-03-25T20:25:34.335Z,1.33
2019-03-25T20:28:04.189Z,1.70
2019-03-25T20:30:33.696Z,1.20
2019-03-25T20:33:04.790Z,2.43
2019-03-25T20:35:34.211Z,1.50
2019-03-25T20:38:03.836Z,1.40
2019-03-25T20:40:33.331Z,1.53
2019-03-25T20:43:02.606Z,1.10
2019-03-25T20:45:31.870Z,1.10
2019-03-25T20:48:01.786Z,1.63
2019-03-25T20:50:31.040Z,1.10
2019-03-25T20:53:00.286Z,1.20
2019-03-25T20:55:29.928Z,1.37
2019-03-25T20:57:59.204Z,1.10
2019-03-25T21:00:51.586Z,0.87
2019-03-25T21:03:22.458Z,1.03
2019-03-25T21:05:52.072Z,1.33
2019-03-25T21:08:21.766Z,1.60
2019-03-25T21:10:53.481Z,0.80
2019-03-25T21:13:22.787Z,1.23
2019-03-25T21:15:52.091Z,1.00
2019-03-25T21:18:25.640Z,1.83
2019-03-25T21:20:55.414Z,1.70
2019-03-25T21:23:24.620Z,1.37
2019-03-25T21:25:53.834Z,1.30
2019-03-25T21:28:23.648Z,1.17
2019-03-25T21:30:53.233Z,1.47
2019-03-25T21:33:22.528Z,1.23
2019-03-25T21:35:51.863Z,1.70
2019-03-25T21:38:32.421Z,1.40
2019-03-25T21:41:01.781Z,1.30
2019-03-25T21:43:31.011Z,1.57
2019-03-25T21:46:00.462Z,1.43
2019-03-25T21:48:29.800Z,1.50
2019-03-25T21:50:59.776Z,1.20
2019-03-25T21:56:31.436Z,1.53
2019-03-25T21:59:00.774Z,1.53
2019-03-25T22:01:30.279Z,1.23
2019-03-25T22:03:59.778Z,1.67
2019-03-25T22:06:30.162Z,2.77
2019-03-25T22:08:59.358Z,2.00
2019-03-25T22:11:28.860Z,1.73
2019-03-25T22:13:58.352Z,2.13
2019-03-25T22:16:27.562Z,1.50
2019-03-25T22:18:56.764Z,1.90
2019-03-25T22:21:25.984Z,1.87
2019-03-25T22:23:55.178Z,1.60
2019-03-25T22:26:24.663Z,2.30
2019-03-25T22:28:53.884Z,2.00
2019-03-25T22:31:23.098Z,1.47
2019-03-25T22:33:52.359Z,1.93
2019-03-25T22:36:21.800Z,1.80
2019-03-25T22:38:51.366Z,1.90
2019-03-25T22:41:20.774Z,1.63
2019-03-25T22:43:50.255Z,2.00
2019-03-25T22:46:19.480Z,2.00
2019-03-25T22:48:48.722Z,1.60
2019-03-25T22:51:18.194Z,2.20
2019-03-25T22:53:47.387Z,1.77
2019-03-25T22:56:16.886Z,1.73
2019-03-25T22:58:46.201Z,1.87
2019-03-25T23:01:15.627Z,2.33
2019-03-25T23:03:45.194Z,1.80
2019-03-25T23:06:14.444Z,1.90
2019-03-25T23:08:43.638Z,2.37
2019-03-25T23:11:13.016Z,2.20
2019-03-25T23:13:42.323Z,1.93
2019-03-25T23:16:11.905Z,2.33
2019-03-25T23:18:41.092Z,2.30
2019-03-25T23:21:10.288Z,2.73
2019-03-25T23:23:39.483Z,2.20
2019-03-25T23:26:09.547Z,2.23
2019-03-25T23:28:38.738Z,3.30
2019-03-25T23:31:07.999Z,2.43
2019-03-25T23:33:51.677Z,2.57
2019-03-25T23:36:10.820Z,2.70
2019-03-25T23:38:40.037Z,2.67
2019-03-25T23:41:09.532Z,2.33
2019-03-25T23:43:38.746Z,2.97
2019-03-25T23:46:08.264Z,2.50
2019-03-25T23:48:37.768Z,2.97
2019-03-25T23:51:07.063Z,3.37
2019-03-25T23:53:36.252Z,2.57
2019-03-25T23:56:05.774Z,3.20
